Time;durP1;ratioP1;P1;durP2;ratioP2;P2;SDS_P1;SDS_P2;PMS_P1;PMS_P2;Temp;Humidity;BMP_temperature;BMP_pressure;BME280_temperature;BME280_humidity;BME280_pressure;Samples;Min_cycle;Max_cycle;Signal;HPM_P1;HPM_P2
2022/01/17 00:01:07;;;;;;;90.32;30.88;;;;;;;-5.64;82.07;98158.05;1682650;85;21001;-74
2022/01/17 00:03:34;;;;;;;84.92;28.02;;;;;;;-5.61;82.21;98146.95;1673438;85;21024;-75
2022/01/17 00:06:01;;;;;;;90.45;30.25;;;;;;;-5.63;84.02;98149.86;1674225;85;21050;-74
2022/01/17 00:08:28;;;;;;;89.17;30.05;;;;;;;-5.67;83.57;98149.28;1670015;85;21466;-75
2022/01/17 00:10:54;;;;;;;86.90;31.62;;;;;;;-5.79;85.79;98150.58;1684135;85;21073;-74
2022/01/17 00:13:26;;;;;;;89.50;29.95;;;;;;;-5.88;85.94;98146.36;1683985;85;21060;-74
2022/01/17 00:15:55;;;;;;;88.72;31.93;;;;;;;-5.85;84.82;98133.16;1683079;85;21002;-74
2022/01/17 00:20:46;;;;;;;92.27;31.27;;;;;;;-5.96;86.24;98121.16;1684047;85;21034;-74
2022/01/17 00:23:15;;;;;;;91.00;33.00;;;;;;;-5.92;86.68;98119.56;1684129;85;21053;-75
2022/01/17 00:25:43;;;;;;;100.95;31.85;;;;;;;-5.88;85.33;98117.56;1654959;86;21076;-74
2022/01/17 00:28:09;;;;;;;89.28;33.23;;;;;;;-5.82;84.99;98127.22;1650460;87;21104;-74
2022/01/17 00:30:36;;;;;;;96.78;32.30;;;;;;;-5.79;85.06;98129.04;1696986;84;21473;-74
2022/01/17 00:33:02;;;;;;;87.22;29.35;;;;;;;-5.74;84.76;98125.81;1696736;85;21025;-74
2022/01/17 00:35:29;;;;;;;92.70;32.25;;;;;;;-5.72;84.15;98124.59;1683914;84;21030;-74
2022/01/17 00:37:55;;;;;;;89.97;30.32;;;;;;;-5.73;83.69;98128.86;1684045;84;21022;-74
2022/01/17 00:40:22;;;;;;;92.47;32.88;;;;;;;-5.78;83.50;98125.66;1684093;84;21458;-74
2022/01/17 00:42:50;;;;;;;83.78;28.17;;;;;;;-5.87;83.00;98119.72;1690303;83;20985;-74
2022/01/17 00:45:19;;;;;;;80.92;28.80;;;;;;;-5.96;83.02;98113.41;1689817;84;21022;-75
2022/01/17 00:47:50;;;;;;;77.12;29.35;;;;;;;-6.02;82.90;98120.89;1696216;83;21064;-74
2022/01/17 00:50:14;;;;;;;87.82;29.77;;;;;;;-6.07;82.96;98109.55;1695817;84;21127;-74
2022/01/17 00:52:42;;;;;;;83.58;30.17;;;;;;;-6.11;82.61;98099.53;1678410;85;21169;-74
2022/01/17 00:55:09;;;;;;;81.20;29.20;;;;;;;-6.16;82.53;98090.73;1696235;85;21438;-74
2022/01/17 00:57:36;;;;;;;84.47;29.12;;;;;;;-6.17;82.79;98088.09;1709079;84;21044;-74
2022/01/17 01:00:05;;;;;;;78.80;29.15;;;;;;;-6.12;82.75;98085.28;1725289;83;20984;-74
2022/01/17 01:02:31;;;;;;;79.45;28.30;;;;;;;-6.12;82.49;98095.20;1725207;83;21103;-73
2022/01/17 01:04:58;;;;;;;84.70;29.98;;;;;;;-6.15;82.61;98088.63;1725550;83;20946;-73
2022/01/17 01:07:24;;;;;;;85.45;29.75;;;;;;;-6.07;83.13;98078.59;1725509;83;21009;-73
2022/01/17 01:10:10;;;;;;;83.85;30.02;;;;;;;-5.99;83.01;98071.10;1703139;83;21529;-73
2022/01/17 01:12:22;;;;;;;84.67;28.57;;;;;;;-5.98;82.66;98071.59;1693572;83;21048;-73
2022/01/17 01:14:48;;;;;;;91.12;31.65;;;;;;;-5.98;82.63;98066.00;1703250;83;21077;-74
2022/01/17 01:17:31;;;;;;;85.77;31.95;;;;;;;-5.90;83.26;98058.97;1725364;83;21500;-74
2022/01/17 01:19:43;;;;;;;86.22;29.90;;;;;;;-5.86;83.34;98055.25;1725294;83;21056;-74
2022/01/17 01:27:43;;;;;;;82.17;27.37;;;;;;;-5.75;83.16;98030.23;1666923;86;20082;-73
2022/01/17 01:30:12;;;;;;;87.88;29.23;;;;;;;-5.73;82.66;98045.39;1666595;86;21537;-73
2022/01/17 01:32:45;;;;;;;87.67;30.77;;;;;;;-5.76;83.07;98033.25;1680464;83;21494;-73
2022/01/17 01:35:10;;;;;;;86.92;30.68;;;;;;;-5.78;83.41;98034.02;1700088;83;21068;-73
2022/01/17 01:37:35;;;;;;;86.08;30.90;;;;;;;-5.81;84.41;98039.06;1700530;84;21048;-73
2022/01/17 01:40:05;;;;;;;89.62;31.07;;;;;;;-5.87;84.10;98030.27;1700923;84;21052;-74
2022/01/17 01:42:33;;;;;;;82.85;30.02;;;;;;;-5.87;83.21;98025.51;1700582;84;21071;-73
2022/01/17 01:45:02;;;;;;;90.62;28.95;;;;;;;-5.87;83.61;98017.77;1687589;84;21469;-73
2022/01/17 01:47:28;;;;;;;97.47;30.80;;;;;;;-5.84;83.87;98008.85;1688161;84;21139;-73
2022/01/17 01:49:55;;;;;;;95.72;31.82;;;;;;;-5.86;84.20;98011.37;1688162;84;20994;-73
2022/01/17 01:52:22;;;;;;;93.40;31.60;;;;;;;-5.90;84.55;98009.94;1687866;84;21495;-73
2022/01/17 01:54:48;;;;;;;95.30;32.33;;;;;;;-5.91;85.65;98017.18;1688267;85;20993;-74
2022/01/17 01:57:15;;;;;;;97.10;32.78;;;;;;;-5.99;84.56;98011.34;1684539;85;21060;-74
2022/01/17 01:59:42;;;;;;;93.05;33.90;;;;;;;-6.03;84.26;98011.23;1683343;85;21025;-74
2022/01/17 02:02:09;;;;;;;101.67;32.55;;;;;;;-6.07;84.90;98011.94;1683515;85;21028;-74
2022/01/17 02:04:37;;;;;;;102.12;33.58;;;;;;;-6.16;85.28;98001.73;1683112;85;22255;-74
2022/01/17 02:07:04;;;;;;;98.00;34.15;;;;;;;-6.15;85.31;97996.17;1683117;85;21061;-74
2022/01/17 02:09:33;;;;;;;90.35;32.65;;;;;;;-6.19;85.34;98001.61;1683326;85;21009;-74
2022/01/17 02:11:59;;;;;;;94.05;31.70;;;;;;;-6.23;84.49;97989.02;1683471;85;21010;-73
2022/01/17 02:14:26;;;;;;;89.37;30.32;;;;;;;-6.24;84.75;97979.53;1683444;85;21438;-74
2022/01/17 02:16:52;;;;;;;97.80;32.80;;;;;;;-6.24;86.03;97983.39;1683517;85;21487;-74
2022/01/17 02:19:21;;;;;;;95.77;32.45;;;;;;;-6.21;85.18;97983.92;1683510;85;21154;-74
2022/01/17 02:21:50;;;;;;;91.55;32.53;;;;;;;-6.26;86.02;97981.19;1683230;85;21017;-74
2022/01/17 02:24:21;;;;;;;93.92;32.38;;;;;;;-6.34;85.95;97991.62;1680780;85;21025;-73
2022/01/17 02:26:52;;;;;;;97.30;33.33;;;;;;;-6.40;85.20;97983.23;1663641;85;20974;-73
2022/01/17 02:29:20;;;;;;;93.52;32.17;;;;;;;-6.45;85.37;97986.05;1683643;85;21589;-73
2022/01/17 02:31:48;;;;;;;91.55;31.70;;;;;;;-6.49;85.68;97986.75;1683575;85;21395;-73
2022/01/17 02:34:17;;;;;;;85.30;31.52;;;;;;;-6.55;85.88;97982.66;1683293;85;21566;-73
2022/01/17 02:36:45;;;;;;;89.47;29.65;;;;;;;-6.61;85.75;97981.14;1683555;85;21116;-73
2022/01/17 02:39:15;;;;;;;84.32;29.02;;;;;;;-6.69;85.87;97983.00;1686136;85;21039;-74
2022/01/17 02:41:49;;;;;;;85.87;30.92;;;;;;;-6.73;85.34;97981.11;1688039;84;20986;-74
2022/01/17 02:44:13;;;;;;;76.67;29.23;;;;;;;-6.71;85.13;97988.52;1684804;84;21050;-73
2022/01/17 02:46:40;;;;;;;84.05;31.05;;;;;;;-6.77;85.89;97984.42;1693588;84;21065;-73
2022/01/17 02:49:08;;;;;;;79.67;30.10;;;;;;;-6.77;85.42;97986.57;1681155;85;21030;-74
2022/01/17 02:51:36;;;;;;;68.40;26.17;;;;;;;-6.76;84.91;97985.74;1692648;85;21029;-74
2022/01/17 02:54:03;;;;;;;82.80;28.23;;;;;;;-6.79;85.10;97970.18;1681347;84;21014;-73
2022/01/17 02:56:29;;;;;;;72.95;30.23;;;;;;;-6.76;84.97;97972.00;1681153;85;21037;-74
2022/01/17 02:58:56;;;;;;;88.72;31.17;;;;;;;-6.74;84.70;97970.77;1693301;84;21442;-74
2022/01/17 03:01:26;;;;;;;78.02;28.55;;;;;;;-6.74;84.99;97957.89;1681368;85;20955;-74
2022/01/17 03:03:55;;;;;;;80.10;31.33;;;;;;;-6.72;84.78;97956.23;1684954;84;20986;-74
2022/01/17 03:06:24;;;;;;;89.00;30.43;;;;;;;-6.67;84.75;97946.97;1683948;85;21029;-74
2022/01/17 03:08:51;;;;;;;76.07;28.50;;;;;;;-6.66;84.30;97943.17;1683735;85;21022;-73
2022/01/17 03:11:28;;;;;;;86.32;30.85;;;;;;;-6.70;84.20;97945.16;1687846;85;21114;-74
2022/01/17 03:13:55;;;;;;;78.52;29.98;;;;;;;-6.68;84.12;97958.11;1681381;85;21068;-74
2022/01/17 03:16:29;;;;;;;74.15;28.98;;;;;;;-6.72;84.20;97960.09;1693560;84;21013;-74
2022/01/17 03:18:51;;;;;;;70.08;27.85;;;;;;;-6.75;83.74;97955.70;1680726;84;21483;-73
2022/01/17 03:21:20;;;;;;;82.75;26.97;;;;;;;-6.84;83.39;97946.33;1679093;85;21038;-74
2022/01/17 03:23:51;;;;;;;84.37;28.57;;;;;;;-6.90;83.54;97938.83;1678825;85;21070;-74
2022/01/17 03:26:18;;;;;;;67.90;26.55;;;;;;;-6.91;83.32;97948.67;1679036;85;20997;-74
2022/01/17 03:28:44;;;;;;;75.20;27.52;;;;;;;-6.99;82.92;97946.20;1679032;85;21045;-74
2022/01/17 03:31:13;;;;;;;75.45;29.12;;;;;;;-7.02;83.25;97943.52;1693420;84;20998;-74
2022/01/17 03:33:40;;;;;;;83.78;28.80;;;;;;;-7.02;82.96;97936.66;1693644;84;21089;-74
2022/01/17 03:36:09;;;;;;;76.47;29.18;;;;;;;-7.00;83.16;97929.39;1681333;84;21010;-73
2022/01/17 03:38:41;;;;;;;83.05;31.70;;;;;;;-6.99;83.01;97916.57;1693470;84;21462;-74
2022/01/17 03:41:08;;;;;;;89.03;30.05;;;;;;;-6.97;83.49;97907.63;1690726;84;21041;-74
2022/01/17 03:43:35;;;;;;;89.22;31.57;;;;;;;-7.03;83.93;97906.96;1685016;83;21446;-74
2022/01/17 03:46:03;;;;;;;86.22;29.70;;;;;;;-7.05;83.30;97903.46;1698410;84;21418;-74
2022/01/17 03:48:32;;;;;;;81.78;31.15;;;;;;;-7.09;83.55;97900.30;1698467;84;21084;-74
2022/01/17 03:51:01;;;;;;;82.02;30.17;;;;;;;-7.07;83.41;97906.37;1698412;84;21029;-73
2022/01/17 03:53:29;;;;;;;89.25;31.23;;;;;;;-7.08;83.38;97905.52;1707344;83;21028;-74
2022/01/17 03:55:56;;;;;;;87.00;30.32;;;;;;;-7.10;83.00;97900.69;1721828;83;21009;-73
2022/01/17 03:58:25;;;;;;;82.62;31.50;;;;;;;-7.11;83.21;97894.22;1723058;83;21056;-73
2022/01/17 04:00:53;;;;;;;82.17;31.93;;;;;;;-7.08;83.23;97902.94;1723248;83;21009;-74
2022/01/17 04:03:20;;;;;;;81.17;29.20;;;;;;;-7.10;82.90;97910.14;1722983;83;21454;-74
2022/01/17 04:05:46;;;;;;;77.70;30.57;;;;;;;-7.13;83.00;97911.29;1687894;85;21053;-73
2022/01/17 04:08:13;;;;;;;73.65;29.18;;;;;;;-7.08;83.03;97912.34;1688425;84;21009;-74
2022/01/17 04:10:40;;;;;;;78.25;30.08;;;;;;;-7.11;82.36;97918.69;1688289;84;21093;-74
2022/01/17 04:13:09;;;;;;;89.95;30.12;;;;;;;-7.10;82.63;97915.28;1688109;84;21499;-74
2022/01/17 04:15:37;;;;;;;74.70;29.07;;;;;;;-7.09;82.61;97917.03;1688296;84;21009;-74
2022/01/17 04:18:07;;;;;;;79.95;29.45;;;;;;;-7.05;81.94;97913.34;1687551;84;21044;-73
2022/01/17 04:20:35;;;;;;;73.30;27.82;;;;;;;-6.98;82.08;97932.49;1688215;85;21084;-74
2022/01/17 04:23:07;;;;;;;71.77;27.80;;;;;;;-6.88;82.33;97942.77;1688358;84;21423;-75
2022/01/17 04:25:37;;;;;;;74.35;26.93;;;;;;;-6.77;82.53;97949.20;1686103;84;21407;-75
2022/01/17 04:28:06;;;;;;;64.70;27.55;;;;;;;-6.70;82.26;97945.55;1688177;84;21058;-75
2022/01/17 04:30:37;;;;;;;66.50;26.20;;;;;;;-6.64;82.03;97950.97;1688305;84;21085;-75
2022/01/17 04:33:05;;;;;;;69.03;25.85;;;;;;;-6.66;82.17;97949.62;1688118;84;21373;-75
2022/01/17 04:35:34;;;;;;;62.43;24.45;;;;;;;-6.58;82.08;97945.14;1687711;84;21029;-73
2022/01/17 04:38:09;;;;;;;65.55;25.10;;;;;;;-6.56;81.84;97944.38;1684131;85;21001;-73
2022/01/17 04:40:39;;;;;;;77.22;27.93;;;;;;;-6.55;81.80;97939.72;1691085;85;21065;-73
2022/01/17 04:43:17;;;;;;;67.58;26.70;;;;;;;-6.53;81.58;97947.48;1691374;85;21048;-73
2022/01/17 04:45:40;;;;;;;64.85;24.40;;;;;;;-6.48;81.93;97958.84;1699926;84;21044;-73
2022/01/17 04:48:07;;;;;;;73.50;26.30;;;;;;;-6.40;81.93;97969.05;1687913;83;21054;-73
2022/01/17 04:50:33;;;;;;;69.82;26.07;;;;;;;-6.34;81.61;97964.53;1672015;85;21018;-73
2022/01/17 04:53:01;;;;;;;62.15;27.20;;;;;;;-6.34;81.57;97952.93;1671999;86;21003;-73
2022/01/17 04:55:29;;;;;;;70.00;26.05;;;;;;;-6.29;81.54;97955.27;1671941;86;21464;-74
2022/01/17 04:57:57;;;;;;;68.85;26.05;;;;;;;-6.28;81.01;97953.55;1672196;85;21503;-74
2022/01/17 05:00:26;;;;;;;65.67;25.52;;;;;;;-6.28;81.08;97950.56;1708772;83;21000;-75
2022/01/17 05:02:54;;;;;;;64.95;24.95;;;;;;;-6.30;80.46;97941.02;1733458;83;21025;-74
2022/01/17 05:05:22;;;;;;;67.12;24.65;;;;;;;-6.30;80.75;97947.47;1733567;83;21001;-74
2022/01/17 05:07:49;;;;;;;65.00;24.27;;;;;;;-6.30;80.60;97959.07;1733558;83;21064;-75
2022/01/17 05:10:18;;;;;;;63.55;25.70;;;;;;;-6.27;80.89;97956.19;1733456;83;21448;-75
2022/01/17 05:12:46;;;;;;;61.05;25.43;;;;;;;-6.23;81.07;97943.87;1727948;83;21028;-75
2022/01/17 05:15:29;;;;;;;62.40;25.43;;;;;;;-6.17;81.10;97933.30;1733460;83;21050;-75
2022/01/17 05:18:13;;;;;;;61.40;25.08;;;;;;;-6.05;81.23;97940.61;1732153;83;20997;-75
2022/01/17 05:20:28;;;;;;;67.97;23.92;;;;;;;-6.02;81.00;97922.63;1717131;83;21049;-76
2022/01/17 05:22:56;;;;;;;68.70;26.42;;;;;;;-5.96;80.91;97924.12;1701036;84;21024;-75
2022/01/17 05:25:23;;;;;;;65.52;24.37;;;;;;;-5.87;81.10;97918.39;1700824;84;21004;-75
2022/01/17 05:27:50;;;;;;;65.95;25.02;;;;;;;-5.80;80.84;97911.74;1712558;83;21008;-75
2022/01/17 05:30:19;;;;;;;53.70;22.65;;;;;;;-5.78;80.63;97904.95;1733405;83;21453;-75
2022/01/17 05:32:47;;;;;;;69.75;26.17;;;;;;;-5.79;79.27;97892.84;1700881;84;20989;-75
2022/01/17 05:35:16;;;;;;;70.32;27.50;;;;;;;-5.79;79.83;97889.86;1733607;83;21012;-75
2022/01/17 05:37:45;;;;;;;61.68;24.65;;;;;;;-5.75;79.96;97899.47;1723363;83;21016;-75
2022/01/17 05:40:16;;;;;;;67.65;24.67;;;;;;;-5.73;80.29;97897.80;1701106;84;21028;-75
2022/01/17 05:42:44;;;;;;;60.78;23.42;;;;;;;-5.70;79.70;97899.20;1701241;84;20989;-75
2022/01/17 05:45:14;;;;;;;51.92;20.70;;;;;;;-5.63;80.03;97895.53;1699753;83;21041;-75
2022/01/17 05:47:43;;;;;;;49.85;20.30;;;;;;;-5.60;80.11;97888.75;1670549;84;21014;-75
2022/01/17 05:50:11;;;;;;;53.90;24.02;;;;;;;-5.52;80.28;97898.47;1669176;86;21516;-75
2022/01/17 05:52:39;;;;;;;50.88;21.60;;;;;;;-5.44;80.26;97903.48;1669353;86;21010;-75
2022/01/17 05:55:09;;;;;;;49.85;22.20;;;;;;;-5.36;80.19;97899.85;1669249;85;21118;-75
2022/01/17 05:57:36;;;;;;;50.67;21.95;;;;;;;-5.29;80.26;97890.16;1669484;86;21045;-75
2022/01/17 06:00:11;;;;;;;59.75;22.77;;;;;;;-5.20;80.18;97889.16;1669154;86;21026;-75
2022/01/17 06:02:37;;;;;;;50.95;22.05;;;;;;;-5.17;79.61;97893.55;1668882;86;21034;-76
2022/01/17 06:05:05;;;;;;;66.30;25.40;;;;;;;-5.18;79.40;97896.53;1675344;84;21484;-77
2022/01/17 06:07:32;;;;;;;58.25;23.67;;;;;;;-5.21;79.20;97901.62;1663231;84;21058;-77
2022/01/17 06:09:58;;;;;;;62.55;24.87;;;;;;;-5.31;79.31;97904.31;1697196;84;21053;-76
2022/01/17 06:12:24;;;;;;;57.23;24.55;;;;;;;-5.26;79.42;97899.31;1670650;86;21049;-77
2022/01/17 06:14:51;;;;;;;46.95;20.88;;;;;;;-5.30;79.53;97888.02;1670750;86;20994;-76
2022/01/17 06:17:17;;;;;;;53.40;23.02;;;;;;;-5.38;80.11;97889.47;1670872;86;21098;-76
2022/01/17 06:19:44;;;;;;;55.55;21.95;;;;;;;-5.38;80.05;97882.12;1674206;84;21566;-72
2022/01/17 06:22:12;;;;;;;55.73;21.68;;;;;;;-5.39;80.20;97886.83;1698889;84;21025;-72
2022/01/17 06:24:42;;;;;;;55.12;21.15;;;;;;;-5.40;80.25;97883.78;1678502;84;21065;-73
2022/01/17 06:27:08;;;;;;;51.02;21.33;;;;;;;-5.41;80.52;97882.05;1670231;86;21092;-73
2022/01/17 06:29:35;;;;;;;55.78;22.25;;;;;;;-5.36;80.38;97874.02;1684313;84;21398;-72
2022/01/17 06:32:05;;;;;;;50.48;20.25;;;;;;;-5.30;80.41;97874.20;1682978;84;21036;-72
2022/01/17 06:34:31;;;;;;;53.58;20.85;;;;;;;-5.24;80.12;97867.93;1667289;86;21092;-72
2022/01/17 06:36:59;;;;;;;52.00;20.68;;;;;;;-5.16;80.29;97875.92;1667655;84;21493;-76
2022/01/17 06:39:25;;;;;;;53.42;23.50;;;;;;;-5.08;80.11;97881.32;1686965;84;21040;-76
2022/01/17 06:41:52;;;;;;;53.90;21.93;;;;;;;-4.99;80.36;97863.95;1698837;84;21398;-76
2022/01/17 06:44:18;;;;;;;50.78;22.58;;;;;;;-4.90;80.27;97852.16;1698685;84;21053;-76
2022/01/17 06:46:45;;;;;;;49.45;21.12;;;;;;;-4.79;80.08;97836.97;1685672;85;21010;-76
2022/01/17 06:49:11;;;;;;;51.18;22.70;;;;;;;-4.71;79.94;97841.47;1685947;85;21073;-76
2022/01/17 06:51:37;;;;;;;55.60;23.65;;;;;;;-4.67;79.59;97848.48;1694743;84;20998;-76
2022/01/17 06:54:04;;;;;;;61.25;23.42;;;;;;;-4.70;79.39;97836.78;1697988;84;21480;-76
2022/01/17 06:56:31;;;;;;;57.23;23.87;;;;;;;-4.70;79.60;97826.00;1698186;84;21022;-76
2022/01/17 06:58:58;;;;;;;59.27;24.35;;;;;;;-4.68;79.55;97803.66;1698161;84;21057;-76
2022/01/17 07:01:24;;;;;;;56.05;24.02;;;;;;;-4.66;79.75;97796.81;1697950;84;21060;-77
2022/01/17 07:03:52;;;;;;;63.02;26.48;;;;;;;-4.61;79.71;97803.83;1686686;84;21025;-76
2022/01/17 07:06:18;;;;;;;56.92;23.05;;;;;;;-4.66;79.52;97803.68;1685992;85;20977;-76
2022/01/17 07:08:45;;;;;;;59.48;24.32;;;;;;;-4.72;79.71;97817.34;1685629;85;21016;-76
2022/01/17 07:11:13;;;;;;;64.03;26.97;;;;;;;-4.74;80.13;97801.32;1685899;84;21013;-75
2022/01/17 07:13:40;;;;;;;61.80;25.92;;;;;;;-4.66;80.13;97804.97;1691231;84;20970;-74
2022/01/17 07:16:07;;;;;;;59.60;25.37;;;;;;;-4.56;80.14;97810.89;1689118;84;21009;-74
2022/01/17 07:18:33;;;;;;;58.48;23.35;;;;;;;-4.43;80.10;97801.75;1695133;85;21012;-73
2022/01/17 07:21:00;;;;;;;57.25;24.00;;;;;;;-4.30;79.85;97802.05;1696226;84;21089;-72
2022/01/17 07:23:26;;;;;;;54.90;25.27;;;;;;;-4.24;80.09;97778.52;1683590;85;21421;-73
2022/01/17 07:25:53;;;;;;;57.43;23.83;;;;;;;-4.13;79.82;97780.50;1683312;84;21101;-74
2022/01/17 07:28:19;;;;;;;54.40;24.40;;;;;;;-4.07;79.86;97784.97;1643279;87;21474;-72
2022/01/17 07:30:46;;;;;;;56.40;25.45;;;;;;;-4.01;79.85;97782.11;1649538;86;21049;-75
2022/01/17 07:33:12;;;;;;;57.62;25.65;;;;;;;-3.95;79.62;97784.39;1629967;88;21068;-76
2022/01/17 07:35:40;;;;;;;56.20;25.30;;;;;;;-3.88;79.89;97800.52;1612047;88;21105;-76
2022/01/17 07:38:07;;;;;;;60.15;26.15;;;;;;;-3.80;79.53;97816.25;1691596;84;21032;-73
2022/01/17 07:40:34;;;;;;;54.80;26.23;;;;;;;-3.74;79.31;97841.02;1684864;84;21025;-75
2022/01/17 07:43:00;;;;;;;60.63;27.52;;;;;;;-3.69;79.30;97870.91;1686964;84;21020;-75
2022/01/17 07:45:31;;;;;;;57.83;26.27;;;;;;;-3.62;78.77;97867.22;1709812;83;20996;-74
2022/01/17 07:48:12;;;;;;;56.70;26.62;;;;;;;-3.59;78.79;97867.30;1692090;84;21051;-74
2022/01/17 07:50:26;;;;;;;57.25;26.73;;;;;;;-3.49;78.95;97849.39;1676220;83;21067;-73
2022/01/17 07:52:53;;;;;;;62.65;27.98;;;;;;;-3.33;79.10;97825.98;1690817;83;21020;-74
2022/01/17 07:55:20;;;;;;;58.98;26.55;;;;;;;-3.20;79.20;97824.58;1700787;84;21109;-74
2022/01/17 07:57:49;;;;;;;65.85;28.15;;;;;;;-3.00;79.16;97831.92;1716643;83;21000;-74
2022/01/17 08:00:23;;;;;;;60.80;27.15;;;;;;;-2.94;78.97;97832.05;1700656;84;21032;-74
2022/01/17 08:02:53;;;;;;;60.65;26.55;;;;;;;-2.89;78.42;97817.87;1732648;83;21079;-74
2022/01/17 08:05:20;;;;;;;58.55;25.90;;;;;;;-2.84;77.80;97806.75;1700502;84;21009;-75
2022/01/17 08:07:47;;;;;;;57.67;25.55;;;;;;;-2.89;77.61;97792.81;1733335;83;21473;-74
2022/01/17 08:10:14;;;;;;;61.58;26.82;;;;;;;-2.87;77.68;97778.59;1700587;84;21017;-74
2022/01/17 08:12:43;;;;;;;62.60;26.42;;;;;;;-2.90;76.97;97761.66;1732414;83;21128;-78
2022/01/17 08:15:11;;;;;;;72.92;30.25;;;;;;;-2.92;77.92;97740.88;1700472;84;21053;-75
2022/01/17 08:17:39;;;;;;;62.80;25.97;;;;;;;-2.87;77.79;97748.77;1732663;83;21005;-74
2022/01/17 08:20:07;;;;;;;52.83;24.05;;;;;;;-2.86;78.02;97746.62;1699042;84;21095;-76
2022/01/17 08:22:36;;;;;;;59.00;23.92;;;;;;;-2.84;77.77;97779.52;1729925;83;21008;-75
2022/01/17 08:25:04;;;;;;;63.08;25.40;;;;;;;-2.77;77.66;97772.74;1712228;83;21036;-73
2022/01/17 08:27:31;;;;;;;59.45;24.15;;;;;;;-2.70;77.80;97782.37;1700198;84;20984;-73
2022/01/17 08:30:00;;;;;;;59.88;25.48;;;;;;;-2.64;77.80;97808.88;1699912;84;21434;-74
2022/01/17 08:32:31;;;;;;;59.03;24.10;;;;;;;-2.55;77.64;97850.99;1708344;83;20951;-71
2022/01/17 08:34:58;;;;;;;56.20;25.12;;;;;;;-2.48;77.62;97861.08;1705217;82;21053;-71
2022/01/17 08:37:27;;;;;;;56.77;26.15;;;;;;;-2.43;77.19;97849.07;1699987;83;21040;-71
2022/01/17 08:39:55;;;;;;;58.30;26.50;;;;;;;-2.39;77.05;97823.22;1699884;84;21623;-71
2022/01/17 08:42:22;;;;;;;59.25;27.37;;;;;;;-2.35;77.37;97815.06;1708513;82;21017;-71
2022/01/17 08:44:51;;;;;;;55.75;27.45;;;;;;;-2.28;77.11;97779.72;1697905;84;21036;-71
2022/01/17 08:47:19;;;;;;;78.70;30.68;;;;;;;-2.25;76.83;97770.66;1725798;83;21433;-71
2022/01/17 08:49:48;;;;;;;71.87;30.75;;;;;;;-2.23;76.90;97767.69;1724794;83;21060;-71
2022/01/17 08:52:17;;;;;;;72.30;31.93;;;;;;;-2.20;76.69;97753.89;1732635;82;20980;-71
2022/01/17 08:54:44;;;;;;;80.10;33.00;;;;;;;-2.20;76.80;97757.78;1702439;83;21045;-71
2022/01/17 08:57:11;;;;;;;86.55;36.20;;;;;;;-2.20;76.56;97755.19;1733135;83;21075;-71
2022/01/17 08:59:38;;;;;;;83.47;35.78;;;;;;;-2.23;76.33;97727.45;1724429;82;21037;-71
2022/01/17 09:02:04;;;;;;;90.72;37.53;;;;;;;-2.28;76.44;97742.93;1693343;84;21040;-72
2022/01/17 09:04:31;;;;;;;96.02;37.90;;;;;;;-2.25;76.29;97743.41;1715058;83;20987;-72
2022/01/17 09:06:58;;;;;;;82.88;36.42;;;;;;;-2.24;76.47;97733.91;1715952;83;20964;-71
2022/01/17 09:09:25;;;;;;;86.78;36.65;;;;;;;-2.20;76.70;97734.41;1727151;83;21072;-71
2022/01/17 09:11:51;;;;;;;86.20;37.05;;;;;;;-2.16;76.47;97738.81;1727831;83;21052;-71
2022/01/17 09:14:18;;;;;;;81.20;34.45;;;;;;;-2.21;76.35;97737.42;1712825;83;21340;-71
2022/01/17 09:16:44;;;;;;;94.47;35.38;;;;;;;-2.17;76.64;97727.55;1691460;84;21049;-71
2022/01/17 09:19:12;;;;;;;80.17;34.35;;;;;;;-2.09;76.75;97712.09;1712874;83;20975;-71
2022/01/17 09:21:39;;;;;;;75.70;35.70;;;;;;;-2.07;76.42;97716.02;1710166;83;21016;-71
2022/01/17 09:24:06;;;;;;;86.63;35.40;;;;;;;-2.10;75.84;97713.36;1706328;82;20997;-71
2022/01/17 09:26:34;;;;;;;76.25;34.60;;;;;;;-2.13;76.12;97703.80;1707664;83;21044;-71
2022/01/17 09:29:01;;;;;;;85.12;36.68;;;;;;;-2.12;76.34;97713.33;1707751;83;20996;-72
2022/01/17 09:31:28;;;;;;;86.92;37.50;;;;;;;-2.08;75.97;97710.38;1711160;83;21506;-71
2022/01/17 09:33:54;;;;;;;79.60;34.67;;;;;;;-2.10;76.33;97703.86;1690921;83;21035;-71
2022/01/17 09:36:24;;;;;;;89.20;37.45;;;;;;;-2.10;76.11;97706.87;1698732;84;21448;-71
2022/01/17 09:38:50;;;;;;;97.02;37.48;;;;;;;-2.15;75.74;97714.59;1699812;83;21087;-71
2022/01/17 09:41:17;;;;;;;93.47;36.90;;;;;;;-2.20;76.09;97713.64;1698542;84;21061;-71
2022/01/17 09:43:44;;;;;;;98.35;39.88;;;;;;;-2.24;75.94;97706.23;1699196;84;21073;-71
2022/01/17 09:46:10;;;;;;;99.55;40.50;;;;;;;-2.24;75.96;97716.63;1697820;83;21077;-71
2022/01/17 09:48:39;;;;;;;88.25;36.95;;;;;;;-2.30;75.86;97725.17;1725262;83;21037;-71
2022/01/17 09:52:04;;;;;;;94.07;39.35;;;;;;;-2.30;76.15;97721.28;1711280;83;20956;-71
2022/01/17 09:53:39;;;;;;;82.82;35.73;;;;;;;-2.27;76.17;97720.05;1681948;85;21028;-71
2022/01/17 09:56:08;;;;;;;89.40;36.98;;;;;;;-2.29;75.95;97706.55;1663692;86;21060;-71
2022/01/17 09:58:39;;;;;;;94.83;37.42;;;;;;;-2.28;76.08;97710.92;1691510;85;21069;-71
2022/01/17 10:01:07;;;;;;;75.08;33.65;;;;;;;-2.28;76.11;97709.18;1711117;83;21443;-72
2022/01/17 10:03:34;;;;;;;87.35;36.50;;;;;;;-2.28;75.88;97691.45;1710999;83;21054;-72
2022/01/17 10:06:00;;;;;;;76.90;33.50;;;;;;;-2.22;76.22;97697.16;1711460;83;21334;-72
2022/01/17 10:08:27;;;;;;;74.95;31.90;;;;;;;-2.21;75.93;97701.08;1691404;85;21092;-72
2022/01/17 10:11:01;;;;;;;74.58;31.80;;;;;;;-2.26;75.97;97698.42;1682638;85;21012;-72
2022/01/17 10:13:32;;;;;;;74.97;32.95;;;;;;;-2.20;76.12;97688.98;1682827;85;20998;-71
2022/01/17 10:16:21;;;;;;;76.30;32.58;;;;;;;-2.23;76.08;97674.23;1682676;85;20997;-72
2022/01/17 10:19:02;;;;;;;77.72;32.70;;;;;;;-2.21;76.23;97667.77;1691381;84;21061;-72
2022/01/17 10:21:49;;;;;;;69.87;30.20;;;;;;;-2.17;76.25;97662.64;1711122;83;21020;-72
2022/01/17 10:27:18;;;;;;;75.08;32.35;;;;;;;-2.14;76.35;97652.72;1724152;83;20110;-71
2022/01/17 10:35:36;;;;;;;82.47;35.90;;;;;;;-2.07;76.30;97636.81;1691604;85;21029;-73
2022/01/17 10:38:14;;;;;;;81.35;34.35;;;;;;;-2.04;76.43;97639.47;1691268;85;21100;-72
2022/01/17 10:40:45;;;;;;;78.42;33.58;;;;;;;-2.02;76.24;97628.25;1710586;83;21007;-72
2022/01/17 10:43:25;;;;;;;75.05;32.30;;;;;;;-1.96;76.71;97612.31;1711057;83;21503;-72
2022/01/17 10:45:53;;;;;;;69.53;32.03;;;;;;;-1.95;76.37;97602.36;1690118;84;21605;-72
2022/01/17 10:48:19;;;;;;;73.42;31.95;;;;;;;-1.86;76.72;97583.02;1671288;86;21497;-72
2022/01/17 10:50:50;;;;;;;75.28;28.90;;;;;;;-1.73;77.01;97571.90;1721277;82;21384;-72
2022/01/17 10:53:18;;;;;;;74.45;31.17;;;;;;;-1.66;76.70;97562.45;1721199;83;21003;-72
2022/01/17 10:55:50;;;;;;;65.70;31.30;;;;;;;-1.61;76.57;97549.09;1721344;83;20994;-72
2022/01/17 10:58:32;;;;;;;66.17;29.18;;;;;;;-1.58;76.57;97541.77;1683888;85;21021;-71
2022/01/17 11:01:08;;;;;;;65.92;29.15;;;;;;;-1.57;76.86;97527.94;1671420;86;21052;-71
2022/01/17 11:03:38;;;;;;;64.80;29.57;;;;;;;-1.51;76.64;97517.59;1721369;83;21058;-72
2022/01/17 11:06:12;;;;;;;65.62;29.82;;;;;;;-1.46;76.79;97515.03;1721276;83;21437;-72
2022/01/17 11:08:41;;;;;;;69.17;29.65;;;;;;;-1.40;76.69;97493.44;1721428;83;20983;-72
2022/01/17 11:11:10;;;;;;;66.20;27.40;;;;;;;-1.35;76.60;97493.94;1703634;83;21371;-72
2022/01/17 11:13:43;;;;;;;63.87;27.22;;;;;;;-1.31;76.47;97488.34;1698503;84;21016;-72
2022/01/17 11:16:13;;;;;;;63.30;27.73;;;;;;;-1.31;76.34;97469.25;1698441;84;20997;-72
2022/01/17 11:18:45;;;;;;;61.05;28.70;;;;;;;-1.31;76.25;97449.75;1698444;84;21039;-72
2022/01/17 11:21:15;;;;;;;65.17;29.42;;;;;;;-1.28;76.54;97445.89;1697644;84;21071;-72
2022/01/17 11:23:47;;;;;;;63.15;29.95;;;;;;;-1.24;76.73;97456.32;1698392;84;21000;-73
2022/01/17 11:26:15;;;;;;;65.00;29.48;;;;;;;-1.20;76.60;97449.45;1698457;84;21056;-72
2022/01/17 11:28:43;;;;;;;69.07;29.07;;;;;;;-1.17;76.63;97444.25;1698350;84;21021;-72
2022/01/17 11:31:15;;;;;;;60.17;27.70;;;;;;;-1.10;76.63;97448.66;1698355;84;21040;-72
2022/01/17 11:33:46;;;;;;;65.80;29.77;;;;;;;-1.01;76.69;97441.77;1698560;84;20993;-72
2022/01/17 11:36:12;;;;;;;61.35;28.98;;;;;;;-0.95;76.57;97430.98;1698131;84;21104;-72
2022/01/17 11:38:44;;;;;;;64.77;29.57;;;;;;;-0.89;76.52;97426.67;1698465;84;21028;-72